Time;durP1;ratioP1;P1;durP2;ratioP2;P2;SDS_P1;SDS_P2;PMS_P1;PMS_P2;Temp;Humidity;BMP_temperature;BMP_pressure;BME280_temperature;BME280_humidity;BME280_pressure;Samples;Min_cycle;Max_cycle;Signal;HPM_P1;HPM_P2
2023/10/08 00:07:42;;;;;;;8.40;4.00;;;17.60;93.30;;;;;;20881720;28;20279;-71
2023/10/08 00:17:45;;;;;;;9.00;3.60;;;17.70;93.30;;;;;;20842229;28;20691;-71
2023/10/08 00:27:51;;;;;;;10.27;3.30;;;17.70;93.20;;;;;;20841750;28;20218;-70
2023/10/08 00:37:53;;;;;;;10.23;3.40;;;17.70;93.20;;;;;;20839757;28;20670;-71
2023/10/08 00:47:56;;;;;;;6.13;3.30;;;17.80;93.20;;;;;;20840318;28;20302;-69
2023/10/08 00:58:07;;;;;;;6.40;3.77;;;17.80;93.20;;;;;;20839402;28;20252;-70
2023/10/08 01:08:12;;;;;;;9.23;3.73;;;17.80;93.10;;;;;;20838405;28;20254;-71
2023/10/08 01:18:18;;;;;;;8.13;3.23;;;17.90;93.10;;;;;;20838366;28;20243;-70
2023/10/08 01:28:25;;;;;;;9.40;4.00;;;17.90;93.10;;;;;;20837020;28;20219;-71
2023/10/08 01:38:29;;;;;;;10.53;3.30;;;17.80;93.10;;;;;;20835872;28;20700;-71
2023/10/08 01:48:37;;;;;;;8.27;3.43;;;17.80;93.20;;;;;;20835627;28;20616;-70
2023/10/08 01:58:39;;;;;;;7.10;3.73;;;17.70;93.40;;;;;;20834374;28;20256;-71
2023/10/08 02:08:41;;;;;;;10.47;3.97;;;17.70;93.60;;;;;;20832631;28;20209;-71
2023/10/08 02:18:44;;;;;;;7.70;4.03;;;17.70;93.80;;;;;;20833151;28;20327;-70
2023/10/08 02:28:45;;;;;;;8.90;4.20;;;17.70;94.00;;;;;;20841009;28;20207;-70
2023/10/08 02:38:47;;;;;;;8.63;3.67;;;17.70;94.10;;;;;;20843257;28;20245;-71
2023/10/08 02:48:49;;;;;;;13.83;5.30;;;17.70;94.10;;;;;;20831335;28;20208;-70
2023/10/08 02:58:51;;;;;;;7.73;4.37;;;17.70;94.20;;;;;;20829825;28;20247;-71
2023/10/08 03:08:52;;;;;;;7.57;3.93;;;17.70;94.30;;;;;;20830083;28;20615;-70
2023/10/08 03:18:57;;;;;;;7.57;4.47;;;17.70;94.30;;;;;;20829717;28;20239;-70
2023/10/08 03:29:15;;;;;;;8.53;3.80;;;17.70;94.50;;;;;;20829590;28;20215;-71
2023/10/08 03:39:18;;;;;;;13.60;7.53;;;17.60;94.60;;;;;;20829044;28;20598;-71
2023/10/08 03:59:31;;;;;;;10.00;4.23;;;17.60;94.90;;;;;;20828439;28;20326;-70
2023/10/08 04:09:34;;;;;;;10.33;4.67;;;17.60;95.00;;;;;;20827997;28;20290;-70
2023/10/08 04:19:36;;;;;;;8.37;4.20;;;17.60;95.20;;;;;;20841683;28;20251;-70
2023/10/08 04:29:38;;;;;;;9.63;4.20;;;17.60;95.30;;;;;;20841981;28;20206;-70
2023/10/08 04:39:46;;;;;;;10.73;4.57;;;17.60;95.30;;;;;;20840620;28;20239;-70
2023/10/08 04:49:48;;;;;;;8.23;4.57;;;17.50;95.10;;;;;;20840326;28;20240;-69
2023/10/08 04:59:50;;;;;;;11.87;5.07;;;17.60;95.50;;;;;;20839622;28;20242;-70
2023/10/08 05:30:16;;;;;;;17.10;4.60;;;17.50;95.70;;;;;;20838560;28;20658;-70
2023/10/08 05:40:54;;;;;;;8.13;5.00;;;17.40;95.80;;;;;;20836161;28;20591;-70
2023/10/08 05:51:13;;;;;;;14.50;5.30;;;17.40;95.80;;;;;;20835481;28;20740;-70
2023/10/08 06:01:37;;;;;;;8.47;4.40;;;17.30;96.00;;;;;;20834618;28;20293;-70
2023/10/08 06:11:44;;;;;;;9.10;3.70;;;17.30;96.00;;;;;;20833704;28;20224;-69
2023/10/08 06:21:46;;;;;;;9.47;3.80;;;17.50;95.90;;;;;;20832602;28;20234;-71
2023/10/08 06:31:51;;;;;;;6.13;3.47;;;17.60;95.70;;;;;;20831146;28;20210;-69
2023/10/08 06:41:54;;;;;;;8.83;4.13;;;17.50;95.70;;;;;;20846332;28;20232;-69
2023/10/08 06:51:56;;;;;;;6.40;3.73;;;17.40;95.70;;;;;;20830685;28;20239;-68
2023/10/08 07:01:58;;;;;;;14.83;6.77;;;17.50;95.70;;;;;;20830716;28;20246;-68
2023/10/08 07:12:05;;;;;;;9.30;5.83;;;17.60;95.60;;;;;;20830616;28;20207;-70
2023/10/08 07:22:21;;;;;;;10.47;4.80;;;17.60;95.60;;;;;;20830057;28;20572;-69
2023/10/08 07:32:25;;;;;;;12.43;5.00;;;17.70;95.70;;;;;;20829551;28;20290;-67
2023/10/08 07:42:28;;;;;;;9.40;3.97;;;18.10;95.30;;;;;;20828557;28;20294;-65
2023/10/08 07:52:30;;;;;;;9.37;4.43;;;18.30;95.20;;;;;;20841541;28;20236;-68
2023/10/08 08:02:32;;;;;;;9.30;3.77;;;18.50;94.80;;;;;;20842739;28;20239;-67
2023/10/08 08:12:35;;;;;;;8.93;3.90;;;18.70;94.60;;;;;;20841461;28;20217;-67
2023/10/08 08:22:40;;;;;;;9.83;4.07;;;;;;;;;;20840976;28;20232;-67
2023/10/08 08:32:44;;;;;;;13.40;4.87;;;18.90;94.20;;;;;;20840777;28;20216;-70
2023/10/08 08:42:47;;;;;;;16.73;3.83;;;18.90;94.00;;;;;;20839872;28;20267;-66
2023/10/08 08:52:51;;;;;;;9.73;3.70;;;18.90;93.80;;;;;;20839484;28;20260;-67
2023/10/08 09:02:53;;;;;;;8.87;4.10;;;18.90;94.10;;;;;;20837784;28;20243;-74
2023/10/08 09:12:59;;;;;;;8.57;4.33;;;19.00;94.00;;;;;;20838610;28;20201;-74
2023/10/08 09:23:13;;;;;;;8.63;4.53;;;19.00;93.60;;;;;;20837044;28;20643;-79
2023/10/08 09:33:17;;;;;;;9.00;4.40;;;19.10;93.40;;;;;;20851438;28;20212;-64
2023/10/08 09:43:20;;;;;;;8.73;4.60;;;19.20;92.90;;;;;;20835572;28;20243;-72
2023/10/08 09:53:42;;;;;;;10.20;4.10;;;19.30;93.20;;;;;;20835493;28;20236;-71
2023/10/08 10:03:45;;;;;;;13.50;4.17;;;19.40;92.90;;;;;;20834386;28;20590;-71
2023/10/08 10:13:58;;;;;;;9.10;4.20;;;19.40;92.80;;;;;;20832860;28;20270;-74
2023/10/08 10:24:00;;;;;;;9.57;4.10;;;19.40;92.70;;;;;;20832622;28;20216;-73
2023/10/08 10:34:12;;;;;;;12.03;4.60;;;19.50;92.70;;;;;;20831824;28;20323;-70
2023/10/08 10:44:15;;;;;;;9.37;4.27;;;19.40;92.70;;;;;;20831764;28;20208;-68
2023/10/08 10:54:21;;;;;;;8.80;4.47;;;19.40;92.90;;;;;;20830600;28;20275;-68
2023/10/08 11:04:28;;;;;;;12.47;4.40;;;19.60;92.80;;;;;;20830010;28;20650;-67
2023/10/08 11:14:33;;;;;;;9.20;5.07;;;19.80;92.50;;;;;;20829892;28;20319;-70
2023/10/08 11:24:34;;;;;;;10.20;4.97;;;19.80;92.80;;;;;;20839176;28;20208;-68
2023/10/08 11:34:39;;;;;;;11.67;4.80;;;19.90;92.60;;;;;;20845188;28;20243;-69
2023/10/08 11:44:40;;;;;;;11.40;4.43;;;20.10;92.50;;;;;;20845118;28;20707;-72
2023/10/08 11:54:43;;;;;;;13.07;5.53;;;20.20;92.40;;;;;;20844351;28;20696;-74
2023/10/08 12:04:45;;;;;;;11.50;4.73;;;20.30;92.50;;;;;;20843764;28;20217;-72
2023/10/08 12:14:47;;;;;;;13.87;5.30;;;20.50;92.40;;;;;;20842928;28;20240;-69
2023/10/08 12:24:49;;;;;;;16.37;6.17;;;20.60;92.50;;;;;;20842085;28;20287;-69
2023/10/08 12:34:53;;;;;;;12.27;4.93;;;20.60;92.80;;;;;;20840119;28;20334;-66
2023/10/08 12:44:57;;;;;;;11.30;5.27;;;20.50;92.70;;;;;;20839156;28;20564;-67
2023/10/08 12:55:03;;;;;;;9.60;4.60;;;20.40;92.80;;;;;;20839460;28;20252;-66
2023/10/08 13:05:15;;;;;;;11.93;4.90;;;20.50;92.90;;;;;;20839101;28;20664;-66
2023/10/08 13:15:17;;;;;;;14.23;4.83;;;20.60;92.80;;;;;;20838718;28;20600;-66
2023/10/08 13:25:20;;;;;;;12.53;4.87;;;20.60;92.40;;;;;;20837561;28;20207;-66
2023/10/08 13:35:22;;;;;;;12.37;4.50;;;20.70;92.60;;;;;;20836354;28;20581;-67
2023/10/08 13:45:29;;;;;;;10.53;5.03;;;21.10;92.60;;;;;;20834249;28;20209;-66
2023/10/08 13:55:30;;;;;;;11.50;4.67;;;21.50;92.20;;;;;;20835156;28;20252;-68
2023/10/08 14:05:33;;;;;;;11.83;5.70;;;21.60;91.70;;;;;;20833996;28;20207;-67
2023/10/08 14:15:42;;;;;;;10.10;5.23;;;21.80;91.50;;;;;;20833671;28;20232;-67
2023/10/08 14:25:44;;;;;;;7.67;4.50;;;21.80;91.10;;;;;;20832914;28;20675;-68
2023/10/08 14:46:09;;;;;;;12.70;4.90;;;21.60;91.10;;;;;;20830932;28;20204;-66
2023/10/08 14:56:12;;;;;;;8.60;3.80;;;21.40;91.20;;;;;;20830075;28;20248;-67
2023/10/08 15:06:14;;;;;;;5.40;3.63;;;21.30;91.30;;;;;;20845010;28;20211;-68
2023/10/08 15:16:17;;;;;;;10.40;3.80;;;21.20;91.40;;;;;;20829444;28;20236;-64
2023/10/08 15:26:19;;;;;;;7.27;3.77;;;21.10;91.60;;;;;;20829307;28;20209;-65
2023/10/08 15:36:20;;;;;;;13.93;3.93;;;21.00;91.70;;;;;;20828597;28;20733;-70
2023/10/08 15:46:22;;;;;;;13.27;3.87;;;20.80;91.80;;;;;;20828815;28;20204;-65
2023/10/08 15:56:26;;;;;;;10.97;3.37;;;20.60;92.10;;;;;;20827823;28;20270;-64
2023/10/08 16:06:28;;;;;;;15.27;4.73;;;20.30;92.20;;;;;;20830826;28;20204;-63
2023/10/08 16:16:29;;;;;;;16.13;4.07;;;20.00;92.50;;;;;;20844716;28;20658;-75
2023/10/08 16:26:32;;;;;;;7.57;3.50;;;19.80;92.80;;;;;;20843887;28;20208;-72
2023/10/08 16:36:35;;;;;;;6.70;3.10;;;19.60;93.10;;;;;;20842987;28;20236;-70
2023/10/08 16:46:43;;;;;;;5.60;2.93;;;19.40;93.50;;;;;;20842299;28;20330;-68
2023/10/08 16:56:45;;;;;;;10.40;4.70;;;19.30;93.80;;;;;;20840145;28;20718;-67
2023/10/08 17:06:47;;;;;;;7.33;3.30;;;19.20;94.00;;;;;;20838649;28;20236;-68
2023/10/08 17:16:49;;;;;;;6.67;3.00;;;19.00;94.20;;;;;;20837563;28;20239;-70
2023/10/08 17:26:51;;;;;;;3.93;2.20;;;18.90;94.50;;;;;;20837514;28;20211;-66
2023/10/08 17:37:12;;;;;;;3.50;2.20;;;18.70;94.60;;;;;;20836365;28;20297;-71
2023/10/08 17:47:14;;;;;;;7.40;2.70;;;18.50;94.60;;;;;;20835816;28;20212;-71
2023/10/08 17:57:16;;;;;;;3.97;2.63;;;18.40;94.80;;;;;;20835149;28;20252;-67
2023/10/08 18:07:19;;;;;;;6.70;2.17;;;18.30;95.00;;;;;;20834140;28;20210;-68
2023/10/08 18:17:22;;;;;;;8.83;2.50;;;18.30;95.20;;;;;;20852066;28;20239;-68
2023/10/08 18:27:23;;;;;;;4.00;2.63;;;18.10;95.30;;;;;;20913932;28;20718;-66
2023/10/08 18:37:26;;;;;;;7.13;2.80;;;18.10;95.60;;;;;;20911756;28;20706;-67
2023/10/08 18:47:28;;;;;;;3.73;2.60;;;18.00;95.60;;;;;;20911954;28;20640;-67
2023/10/08 18:57:31;;;;;;;5.20;2.53;;;17.90;95.80;;;;;;20910716;28;20330;-68
2023/10/08 19:07:34;;;;;;;6.73;2.90;;;17.80;95.90;;;;;;20910104;28;20214;-68
2023/10/08 19:17:36;;;;;;;6.40;2.80;;;17.70;96.00;;;;;;20909658;28;20234;-68
2023/10/08 19:27:39;;;;;;;5.83;3.20;;;17.60;96.20;;;;;;20909927;28;20261;-68
2023/10/08 19:37:40;;;;;;;6.90;3.23;;;17.60;96.40;;;;;;20908896;28;20238;-68
2023/10/08 19:47:45;;;;;;;4.33;3.10;;;17.50;96.50;;;;;;20921458;28;20302;-67
2023/10/08 19:57:51;;;;;;;7.87;3.60;;;17.50;96.80;;;;;;20924914;28;20250;-68
2023/10/08 20:07:53;;;;;;;4.70;3.43;;;17.30;96.90;;;;;;20924030;28;20225;-68
2023/10/08 20:17:54;;;;;;;9.97;3.90;;;17.30;96.80;;;;;;20923135;28;20276;-68
2023/10/08 20:27:56;;;;;;;7.70;3.57;;;17.20;97.40;;;;;;20922484;28;20208;-68
2023/10/08 20:37:58;;;;;;;6.80;4.10;;;17.20;97.60;;;;;;20921751;28;20727;-68
2023/10/08 20:48:01;;;;;;;5.93;3.57;;;17.10;97.50;;;;;;20920884;28;20258;-68
2023/10/08 20:58:07;;;;;;;6.23;3.80;;;17.00;97.80;;;;;;20919347;28;20600;-68
2023/10/08 21:08:11;;;;;;;6.50;3.67;;;16.90;98.00;;;;;;20918126;28;20216;-67
2023/10/08 21:18:13;;;;;;;9.23;4.40;;;16.80;98.30;;;;;;20918408;28;20242;-66
2023/10/08 21:28:15;;;;;;;6.87;3.67;;;16.70;98.40;;;;;;20916123;28;20215;-68
2023/10/08 21:38:17;;;;;;;8.37;3.80;;;16.50;98.60;;;;;;20916060;28;20318;-67
2023/10/08 21:48:19;;;;;;;7.53;4.07;;;16.40;99.00;;;;;;20917605;28;20199;-67
2023/10/08 21:58:21;;;;;;;8.63;4.30;;;16.30;99.10;;;;;;20917919;28;20247;-68
2023/10/08 22:08:25;;;;;;;7.93;3.80;;;16.30;99.30;;;;;;20916661;28;20215;-67
2023/10/08 22:18:29;;;;;;;6.67;3.60;;;16.10;99.30;;;;;;20916035;28;20637;-67
2023/10/08 22:28:34;;;;;;;6.37;4.27;;;15.80;99.30;;;;;;20915866;28;20616;-67
2023/10/08 22:38:36;;;;;;;6.27;3.90;;;15.80;99.60;;;;;;20914575;28;20696;-67
2023/10/08 22:48:43;;;;;;;9.27;5.47;;;15.80;99.70;;;;;;20914450;28;20575;-66
2023/10/08 22:58:45;;;;;;;8.60;3.87;;;15.70;99.80;;;;;;20913479;28;20240;-67
2023/10/08 23:08:47;;;;;;;7.93;3.57;;;15.60;99.90;;;;;;20912720;28;20292;-66
2023/10/08 23:18:54;;;;;;;6.30;3.50;;;15.40;99.90;;;;;;20911928;28;20691;-66
2023/10/08 23:28:57;;;;;;;7.47;3.60;;;15.20;99.90;;;;;;20912209;28;20225;-65
2023/10/08 23:39:06;;;;;;;8.10;3.60;;;15.20;99.90;;;;;;20911802;28;20323;-65
2023/10/08 23:49:19;;;;;;;5.63;3.77;;;15.20;99.90;;;;;;20911335;28;20204;-65
2023/10/08 23:59:24;;;;;;;6.87;3.80;;;15.10;99.90;;;;;;20911193;28;20235;-66
